« 沖縄チャーター 富山空港 2016/7/22 fri | トップページ | 第29回札幌航空ページェント【B.I.編】 札幌飛行場 2016/7/24 sun »

2016/07/27

空撮 ANA1181 2016/7/22 fri

いつぶりかも記憶がない、青組搭乗。向かうは、北海道。

20160722_ana1181_30toyama

富山空港のRWは02。

20160722_ana1181_31nh1181

解っていても、今一度確認しましょうね。

RJNT 220300Z 35009KT 310V020 9999 FEW020 SCT030 BKN040 27/20 Q1011

20160722_ana1181_32toyama

RWに入ります。

20160722_ana1181_33toyama

日本一デカイターニングパッドで・・

20160722_ana1181_34toyama

さあ、離陸です。

20160722_ana1181_35b18609

CAL171 RJNT-RCTP B-18609 B737-809

20160722_ana1181_36toe

おなじみの富山VOR/DME

20160722_ana1181_37toyama

ほくりくフリウェー

20160722_ana1181_38toyama

富山城 ハローキティが隠れているよ

20160722_ana1181_39toyama

富岩運河も一望

20160722_ana1181_40toyama

じんつうりばーまうす 富山港です。

20160722_ana1181_41toyama

薄い雲の層を抜けます

20160722_ana1181_42toyama

ライトターンして IKUJI へ

20160722_ana1181_43yahiko

PL04「やひこ」インサイト

20160722_ana1181_44toyama

どんどん上昇していきます。

20160722_ana1181_45toyama

ラーラー ララーララーラーラー

20160722_ana1181_46ikuji

IKUJIポイントで転進

20160722_ana1181_47kurobe

黒部川扇状地

20160722_ana1181_48kenkyo

新潟県境

20160722_ana1181_49goldo

GOLDO 佐渡島上空

20160722_ana1181_50rjsn

新潟空港

RJCC 220400Z 19009KT 9999 FEW010 SCT015 BKN018 20/16 Q1016 RMK 1ST010 4ST015 7ST018 A3001

20160722_ana1181_51awashima

粟島

20160722_ana1181_52rjsy

庄内空港

20160722_ana1181_53tobishima

飛島

20160722_ana1181_54rjsk

秋田空港

20160722_ana1181_55kyuakita

旧秋田空港跡

20160722_ana1181_56rjsr

大館能代空港

20160722_ana1181_57rjsm

滑走路改修中の三沢飛行場

20160722_ana1181_58oominato

陸奥湾に自衛艦2艦

20160722_ana1181_59rjso

大湊飛行場

20160722_ana1181_60oominato

こちらは、輸送艦

20160722_ana1181_61kabayama

おっと、忘れとった 樺山 アブねー

20160722_ana1181_62shiriyazaki

尻屋先を眺めて津軽海峡

20160722_ana1181_63ja19jj

空対空 JJP118 RJCC-RJAA JA19JJ A320-232

20160722_ana1181_64rjcc

鵡川から北海道

20160722_ana1181_65rjcc

ベースターンして・・

20160722_ana1181_66rjcc

千歳にKC発見

20160722_ana1181_67rjcc

なんか、怪しい白装束

20160722_ana1181_68rjcc

オン ファイナル

20160722_ana1181_69rjcc

スレッショルド

20160722_ana1181_70rjcc

はい、ランディング

RJCC 220430Z 18010KT 9999 FEW010 SCT015 BKN018 20/16 Q1016 RMK 1ST010 4ST015 7ST018 A3001

20160722_ana1181_71rjcc

着陸は19L 離陸は19R

20160722_ana1181_72rjcc

もう、後続機が着陸してきました

20160722_ana1181_73rjcc

クロスランウェィ

20160722_ana1181_74ja203j

JAL2715 RJCC-RJCM JA203J CRJ-200ER

20160722_ana1181_75rjcc

ロイズですよ

20160722_ana1181_76ja756a

後続機が隣のスポットに

ANA63 RJTT-RJCC JA756A B777-381

20160722_ana1181_77ja64an

ANA1181 RJNT-RJTT JA64AN B737-881

20160722_ana1181_78ja64an

新千歳空港は、キティちゃんだらけ

|

« 沖縄チャーター 富山空港 2016/7/22 fri | トップページ | 第29回札幌航空ページェント【B.I.編】 札幌飛行場 2016/7/24 sun »

そら」カテゴリの記事

富山空港」カテゴリの記事

千歳飛行場」カテゴリの記事

空撮」カテゴリの記事

コメント

コメントを書く



(ウェブ上には掲載しません)


コメントは記事投稿者が公開するまで表示されません。



トラックバック


この記事へのトラックバック一覧です: 空撮 ANA1181 2016/7/22 fri:

« 沖縄チャーター 富山空港 2016/7/22 fri | トップページ | 第29回札幌航空ページェント【B.I.編】 札幌飛行場 2016/7/24 sun »